Titan — ZCED2 — position and weather

sailwx.info

Track history (hours):
 
Tides and Currents Weather Stations Pressure Air Temp Water Temp Dewpoint Dewpoint Depression Visibility Wind Speed Wind Dir Waves Ship Positions

Titan

Last reported at 2015-Jul-05 13:34 UTC. Time now 2015-Jul-05 21:06 UTC.
Position N 40°32' E 014°18'.

Length 80 m; draft 3.5 m.

Type: Pleasure craft. MMSI: 310598000.

Date/timePositionNaut miles runAvg speedWind from/ knotsBaromVisibWave heightAir tempDewpointWater temp
2015-Jul-05 13:34N 40°32' E 014°18'3 2.4
2015-Jul-05 12:25N 40°32' E 014°14'0 0.0
2015-Jul-05 11:31N 40°32' E 014°14'0 0.0
2015-Jul-05 10:19N 40°32' E 014°14'0 0.0
2015-Jul-05 08:31N 40°32' E 014°14'0 0.0
2015-Jul-05 07:25N 40°32' E 014°14'0 0.0
2015-Jul-05 06:31N 40°32' E 014°14'0 0.0
2015-Jul-05 05:31N 40°32' E 014°14'0 0.0
2015-Jul-05 04:31N 40°32' E 014°14'0 0.0
2015-Jul-05 03:31N 40°32' E 014°14'0 0.0
2015-Jul-05 02:31N 40°32' E 014°14'0 0.0
2015-Jul-05 01:28N 40°32' E 014°14'0 0.0
2015-Jul-05 00:31N 40°32' E 014°14'0 0.0
2015-Jul-04 23:31N 40°32' E 014°14'1 0.3
2015-Jul-04 20:22N 40°32' E 014°16'6 7.2
2015-Jul-04 19:34N 40°37' E 014°19'3 3.3
2015-Jul-04 18:32N 40°38' E 014°23'0 0.0
2015-Jul-04 17:23N 40°38' E 014°23'0 0.0
2015-Jul-04 16:32N 40°38' E 014°23'0 0.0
2015-Jul-04 15:29N 40°38' E 014°23'0 0.0
2015-Jul-04 14:32N 40°38' E 014°23'0 0.0
2015-Jul-04 13:29N 40°38' E 014°23'0 0.0
2015-Jul-04 12:29N 40°38' E 014°23'0 0.0
2015-Jul-04 11:32N 40°38' E 014°23'0 0.0
2015-Jul-04 10:32N 40°38' E 014°23'0 0.0
2015-Jul-04 09:29N 40°38' E 014°23'0 0.1
2015-Jul-04 08:34N 40°38' E 014°23'1110.7
2015-Jul-04 07:33N 40°45' E 014°12'6 5.7
2015-Jul-04 06:31N 40°48' E 014°05'0 0.0
2015-Jul-04 05:31N 40°48' E 014°05'0 0.0
2015-Jul-03 21:28N 40°48' E 014°05'0 0.0
2015-Jul-03 20:31N 40°48' E 014°05'0 0.0
2015-Jul-03 19:31N 40°48' E 014°05'0 0.0
2015-Jul-03 18:31N 40°48' E 014°05'0 0.0
2015-Jul-03 17:28N 40°48' E 014°05'0 0.0
2015-Jul-03 16:28N 40°48' E 014°05'0 0.0
2015-Jul-03 15:22N 40°48' E 014°05'0 0.0
2015-Jul-03 14:25N 40°48' E 014°05'0 0.0
2015-Jul-03 13:22N 40°48' E 014°05'0 0.0
2015-Jul-03 12:31N 40°48' E 014°05'0 0.0
2015-Jul-03 11:31N 40°48' E 014°05'1 1.5
2015-Jul-03 10:33N 40°48' E 014°07'6 2.5
2015-Jul-03 08:17N 40°50' E 014°14'0 0.0
2015-Jul-02 14:08N 40°50' E 014°14'0 0.0
2015-Jul-02 13:32N 40°50' E 014°14'0 0.0
2015-Jul-02 12:29N 40°50' E 014°14'0 0.0
2015-Jul-02 11:32N 40°50' E 014°14'2 0.5
2015-Jul-02 06:33N 40°48' E 014°13'4 3.2
2015-Jul-02 05:23N 40°49' E 014°08'0 0.0
2015-Jul-02 04:32N 40°49' E 014°08'0 0.0
2015-Jul-02 03:32N 40°49' E 014°08'0 0.0
2015-Jul-02 02:32N 40°49' E 014°08'0 0.0
2015-Jul-02 01:32N 40°49' E 014°08'0 0.0
2015-Jul-02 00:20N 40°49' E 014°08'0 0.0
2015-Jul-01 23:32N 40°49' E 014°08'0 0.0
2015-Jul-01 22:32N 40°49' E 014°08'0 0.0
2015-Jul-01 21:32N 40°49' E 014°08'0 0.0
2015-Jul-01 20:32N 40°49' E 014°08'0 0.0
2015-Jul-01 19:32N 40°49' E 014°08'4 4.3
2015-Jul-01 18:34N 40°48' E 014°13'2 0.3
2015-Jul-01 12:29N 40°50' E 014°14'0 0.0
2015-Jul-01 11:29N 40°50' E 014°14'0 0.0
2015-Jul-01 10:32N 40°50' E 014°14'0 0.0
2015-Jul-01 09:26N 40°49' E 014°14'0 0.0
2015-Jul-01 08:29N 40°49' E 014°14'3 0.1
2015-Jun-29 08:33N 40°46' E 014°15'1111.3
2015-Jun-29 07:32N 40°35' E 014°17'7311.4
2015-Jun-29 01:10N 39°29' E 014°58'811.8
2015-Jun-29 00:30N 39°22' E 015°02'5312.2
2015-Jun-28 20:09N 38°35' E 015°32'711.8
2015-Jun-28 19:32N 38°28' E 015°36'1211.9
2015-Jun-28 18:33N 38°17' E 015°42'1110.8
2015-Jun-28 17:33N 38°08' E 015°36'1313.1
2015-Jun-28 16:33N 37°55' E 015°34'1212.3
2015-Jun-28 15:33N 37°42' E 015°32'6012.0
2015-Jun-28 10:32N 36°43' E 015°16'2812.2
2015-Jun-28 08:12N 36°20' E 014°55'2112.3
2015-Jun-28 06:31N 36°04' E 014°40'1212.0
2015-Jun-28 05:33N 35°54' E 014°32'1 0.1
2015-Jun-27 16:25N 35°53' E 014°31'0 0.0
2015-Jun-27 12:25N 35°53' E 014°31'0 0.0
2015-Jun-27 11:31N 35°53' E 014°31'0 0.0
2015-Jun-27 10:25N 35°53' E 014°31'  
Track history (hours):
 
Tides and Currents Weather Stations Pressure Air Temp Water Temp Dewpoint Dewpoint Depression Visibility Wind Speed Wind Dir Waves Ship Positions

Titan

Last reported at 2015-Jul-05 13:34 UTC. Time now 2015-Jul-05 21:06 UTC.
Position N 40°32' E 014°18'.

Length 80 m; draft 3.5 m.

Type: Pleasure craft. MMSI: 310598000.

Date/timePositionNaut miles runAvg speedWind from/ knotsBaromVisibWave heightAir tempDewpointWater temp
2015-Jul-05 13:34N 40°32' E 014°18'3 2.4
2015-Jul-05 12:25N 40°32' E 014°14'0 0.0
2015-Jul-05 11:31N 40°32' E 014°14'0 0.0
2015-Jul-05 10:19N 40°32' E 014°14'0 0.0
2015-Jul-05 08:31N 40°32' E 014°14'0 0.0
2015-Jul-05 07:25N 40°32' E 014°14'0 0.0
2015-Jul-05 06:31N 40°32' E 014°14'0 0.0
2015-Jul-05 05:31N 40°32' E 014°14'0 0.0
2015-Jul-05 04:31N 40°32' E 014°14'0 0.0
2015-Jul-05 03:31N 40°32' E 014°14'0 0.0
2015-Jul-05 02:31N 40°32' E 014°14'0 0.0
2015-Jul-05 01:28N 40°32' E 014°14'0 0.0
2015-Jul-05 00:31N 40°32' E 014°14'0 0.0
2015-Jul-04 23:31N 40°32' E 014°14'1 0.3
2015-Jul-04 20:22N 40°32' E 014°16'6 7.2
2015-Jul-04 19:34N 40°37' E 014°19'3 3.3
2015-Jul-04 18:32N 40°38' E 014°23'0 0.0
2015-Jul-04 17:23N 40°38' E 014°23'0 0.0
2015-Jul-04 16:32N 40°38' E 014°23'0 0.0
2015-Jul-04 15:29N 40°38' E 014°23'0 0.0
2015-Jul-04 14:32N 40°38' E 014°23'0 0.0
2015-Jul-04 13:29N 40°38' E 014°23'0 0.0
2015-Jul-04 12:29N 40°38' E 014°23'0 0.0
2015-Jul-04 11:32N 40°38' E 014°23'0 0.0
2015-Jul-04 10:32N 40°38' E 014°23'0 0.0
2015-Jul-04 09:29N 40°38' E 014°23'0 0.1
2015-Jul-04 08:34N 40°38' E 014°23'1110.7
2015-Jul-04 07:33N 40°45' E 014°12'6 5.7
2015-Jul-04 06:31N 40°48' E 014°05'0 0.0
2015-Jul-04 05:31N 40°48' E 014°05'0 0.0
2015-Jul-03 21:28N 40°48' E 014°05'0 0.0
2015-Jul-03 20:31N 40°48' E 014°05'0 0.0
2015-Jul-03 19:31N 40°48' E 014°05'0 0.0
2015-Jul-03 18:31N 40°48' E 014°05'0 0.0
2015-Jul-03 17:28N 40°48' E 014°05'0 0.0
2015-Jul-03 16:28N 40°48' E 014°05'0 0.0
2015-Jul-03 15:22N 40°48' E 014°05'0 0.0
2015-Jul-03 14:25N 40°48' E 014°05'0 0.0
2015-Jul-03 13:22N 40°48' E 014°05'0 0.0
2015-Jul-03 12:31N 40°48' E 014°05'0 0.0
2015-Jul-03 11:31N 40°48' E 014°05'1 1.5
2015-Jul-03 10:33N 40°48' E 014°07'6 2.5
2015-Jul-03 08:17N 40°50' E 014°14'0 0.0
2015-Jul-02 14:08N 40°50' E 014°14'0 0.0
2015-Jul-02 13:32N 40°50' E 014°14'0 0.0
2015-Jul-02 12:29N 40°50' E 014°14'0 0.0
2015-Jul-02 11:32N 40°50' E 014°14'2 0.5
2015-Jul-02 06:33N 40°48' E 014°13'4 3.2
2015-Jul-02 05:23N 40°49' E 014°08'0 0.0
2015-Jul-02 04:32N 40°49' E 014°08'0 0.0
2015-Jul-02 03:32N 40°49' E 014°08'0 0.0
2015-Jul-02 02:32N 40°49' E 014°08'0 0.0
2015-Jul-02 01:32N 40°49' E 014°08'0 0.0
2015-Jul-02 00:20N 40°49' E 014°08'0 0.0
2015-Jul-01 23:32N 40°49' E 014°08'0 0.0
2015-Jul-01 22:32N 40°49' E 014°08'0 0.0
2015-Jul-01 21:32N 40°49' E 014°08'0 0.0
2015-Jul-01 20:32N 40°49' E 014°08'0 0.0
2015-Jul-01 19:32N 40°49' E 014°08'4 4.3
2015-Jul-01 18:34N 40°48' E 014°13'2 0.3
2015-Jul-01 12:29N 40°50' E 014°14'0 0.0
2015-Jul-01 11:29N 40°50' E 014°14'0 0.0
2015-Jul-01 10:32N 40°50' E 014°14'0 0.0
2015-Jul-01 09:26N 40°49' E 014°14'0 0.0
2015-Jul-01 08:29N 40°49' E 014°14'3 0.1
2015-Jun-29 08:33N 40°46' E 014°15'1111.3
2015-Jun-29 07:32N 40°35' E 014°17'7311.4
2015-Jun-29 01:10N 39°29' E 014°58'811.8
2015-Jun-29 00:30N 39°22' E 015°02'5312.2
2015-Jun-28 20:09N 38°35' E 015°32'711.8
2015-Jun-28 19:32N 38°28' E 015°36'1211.9
2015-Jun-28 18:33N 38°17' E 015°42'1110.8
2015-Jun-28 17:33N 38°08' E 015°36'1313.1
2015-Jun-28 16:33N 37°55' E 015°34'1212.3
2015-Jun-28 15:33N 37°42' E 015°32'6012.0
2015-Jun-28 10:32N 36°43' E 015°16'2812.2
2015-Jun-28 08:12N 36°20' E 014°55'2112.3
2015-Jun-28 06:31N 36°04' E 014°40'1212.0
2015-Jun-28 05:33N 35°54' E 014°32'1 0.1
2015-Jun-27 16:25N 35°53' E 014°31'0 0.0
2015-Jun-27 12:25N 35°53' E 014°31'0 0.0
2015-Jun-27 11:31N 35°53' E 014°31'0 0.0
2015-Jun-27 10:25N 35°53' E 014°31'  

Dump ship's entire track history